Time;durP1;ratioP1;P1;durP2;ratioP2;P2;SDS_P1;SDS_P2;PMS_P1;PMS_P2;Temp;Humidity;BMP_temperature;BMP_pressure;BME280_temperature;BME280_humidity;BME280_pressure;Samples;Min_cycle;Max_cycle;Signal;HPM_P1;HPM_P2
2023/03/03 00:01:53;;;;;;;;;;;3.30;98.20;;;;;;5094349;28;20014;-73
2023/03/03 00:04:18;;;;;;;;;;;3.30;97.90;;;;;;5109661;28;19912;-74
2023/03/03 00:06:44;;;;;;;;;;;3.30;97.90;;;;;;5109522;28;19919;-73
2023/03/03 00:09:09;;;;;;;;;;;3.30;97.90;;;;;;5102020;27;20405;-73
2023/03/03 00:11:35;;;;;;;;;;;3.30;97.90;;;;;;5088804;28;19912;-74
2023/03/03 00:14:00;;;;;;;;;;;3.30;97.90;;;;;;5087808;28;19908;-73
2023/03/03 00:16:39;;;;;;;;;;;3.30;98.00;;;;;;5088954;28;19912;-73
2023/03/03 00:19:16;;;;;;;;;;;3.30;98.00;;;;;;5089592;28;20365;-73
2023/03/03 00:21:44;;;;;;;;;;;3.30;97.90;;;;;;5106108;28;20334;-74
2023/03/03 00:24:10;;;;;;;;;;;3.30;97.90;;;;;;5095876;28;19919;-73
2023/03/03 00:26:37;;;;;;;;;;;3.30;97.90;;;;;;5088946;28;19912;-74
2023/03/03 00:29:22;;;;;;;;;;;3.30;97.90;;;;;;5088462;28;19954;-73
2023/03/03 00:31:48;;;;;;;;;;;3.30;98.00;;;;;;5088571;28;20586;-73
2023/03/03 00:34:13;;;;;;;;;;;3.30;97.90;;;;;;5093258;28;20057;-74
2023/03/03 00:36:39;;;;;;;;;;;3.30;98.00;;;;;;5108096;28;19978;-73
2023/03/03 00:39:14;;;;;;;;;;;3.30;97.90;;;;;;5108506;28;19912;-73
2023/03/03 00:41:39;;;;;;;;;;;3.30;98.00;;;;;;5099019;28;19954;-74
2023/03/03 00:44:38;;;;;;;;;;;3.30;97.90;;;;;;5088164;28;19974;-73
2023/03/03 00:47:22;;;;;;;;;;;3.30;97.90;;;;;;5075575;28;20386;-73
2023/03/03 00:49:47;;;;;;;;;;;3.20;97.80;;;;;;5089629;28;19947;-73
2023/03/03 00:52:14;;;;;;;;;;;3.20;97.90;;;;;;5089259;28;20001;-74
2023/03/03 00:54:40;;;;;;;;;;;3.20;97.90;;;;;;5105917;28;19912;-73
2023/03/03 00:57:06;;;;;;;;;;;3.20;97.80;;;;;;5107850;28;19915;-73
2023/03/03 00:59:31;;;;;;;;;;;3.20;97.90;;;;;;5108201;28;20003;-73
2023/03/03 01:01:57;;;;;;;;;;;3.20;97.90;;;;;;5091931;28;19912;-74
2023/03/03 01:04:22;;;;;;;;;;;3.20;97.90;;;;;;5091767;28;20249;-74
2023/03/03 01:06:48;;;;;;;;;;;3.20;97.90;;;;;;5108494;28;19911;-73
2023/03/03 01:09:14;;;;;;;;;;;3.20;97.90;;;;;;5100708;28;19912;-73
2023/03/03 01:11:39;;;;;;;;;;;3.30;97.90;;;;;;5089590;28;19916;-74
2023/03/03 01:14:05;;;;;;;;;;;3.20;97.90;;;;;;5099011;28;19923;-73
2023/03/03 01:16:31;;;;;;;;;;;3.30;97.90;;;;;;5096760;28;19994;-73
2023/03/03 01:18:57;;;;;;;;;;;3.20;97.90;;;;;;5089692;28;20010;-73
2023/03/03 01:21:22;;;;;;;;;;;3.20;97.90;;;;;;5100084;28;19980;-73
2023/03/03 01:23:48;;;;;;;;;;;3.20;97.90;;;;;;5107751;28;19912;-73
2023/03/03 01:26:13;;;;;;;;;;;3.20;97.90;;;;;;5107945;28;19911;-73
2023/03/03 01:28:39;;;;;;;;;;;3.20;97.90;;;;;;5107737;28;20323;-73
2023/03/03 01:31:05;;;;;;;;;;;3.20;98.00;;;;;;5107991;28;19947;-73
2023/03/03 01:33:31;;;;;;;;;;;3.20;98.00;;;;;;5108282;28;19921;-74
2023/03/03 01:35:57;;;;;;;;;;;3.20;98.00;;;;;;5094989;28;19912;-73
2023/03/03 01:38:22;;;;;;;;;;;3.20;97.90;;;;;;5104162;28;19923;-74
2023/03/03 01:40:53;;;;;;;;;;;3.20;98.00;;;;;;5107122;28;20320;-74
2023/03/03 01:43:19;;;;;;;;;;;3.20;98.00;;;;;;5087647;28;20256;-73
2023/03/03 01:45:47;;;;;;;;;;;3.20;98.30;;;;;;5087550;28;19912;-73
2023/03/03 01:48:17;;;;;;;;;;;3.10;97.90;;;;;;5087552;28;19912;-73
2023/03/03 01:50:48;;;;;;;;;;;3.10;98.00;;;;;;5096599;28;19912;-74
2023/03/03 01:53:18;;;;;;;;;;;3.10;97.90;;;;;;5105458;28;20395;-73
2023/03/03 01:55:45;;;;;;;;;;;3.10;98.00;;;;;;5107986;28;19919;-73
2023/03/03 01:58:13;;;;;;;;;;;3.10;98.00;;;;;;5107646;28;19911;-73
2023/03/03 02:00:41;;;;;;;;;;;3.10;98.00;;;;;;5100917;28;20372;-73
2023/03/03 02:03:06;;;;;;;;;;;3.10;98.00;;;;;;5086160;28;19912;-73
2023/03/03 02:05:32;;;;;;;;;;;3.10;98.00;;;;;;5087695;28;20436;-74
2023/03/03 02:07:58;;;;;;;;;;;3.10;98.00;;;;;;5087648;28;19913;-73
2023/03/03 02:10:23;;;;;;;;;;;3.10;98.00;;;;;;5088927;28;19927;-74
2023/03/03 02:12:51;;;;;;;;;;;3.10;98.00;;;;;;5089384;28;20014;-74
2023/03/03 02:15:18;;;;;;;;;;;3.10;98.00;;;;;;5090971;28;19912;-74
2023/03/03 02:17:44;;;;;;;;;;;3.10;98.00;;;;;;5089356;28;19985;-73
2023/03/03 02:20:24;;;;;;;;;;;3.10;98.00;;;;;;5095461;28;20287;-73
2023/03/03 02:22:53;;;;;;;;;;;3.10;98.00;;;;;;5107956;28;20002;-74
2023/03/03 02:25:26;;;;;;;;;;;3.10;98.00;;;;;;5107860;28;19919;-73
2023/03/03 02:27:51;;;;;;;;;;;3.10;98.00;;;;;;5111423;28;19980;-74
2023/03/03 02:30:18;;;;;;;;;;;3.10;98.00;;;;;;5111316;28;20444;-73
2023/03/03 02:32:44;;;;;;;;;;;3.10;98.00;;;;;;5102222;28;19947;-74
2023/03/03 02:35:38;;;;;;;;;;;3.10;98.00;;;;;;5091307;28;20487;-74
2023/03/03 02:38:24;;;;;;;;;;;3.10;98.00;;;;;;5093225;28;19973;-74
2023/03/03 02:41:10;;;;;;;;;;;3.10;98.00;;;;;;5109514;28;20317;-73
2023/03/03 02:43:41;;;;;;;;;;;3.10;98.00;;;;;;5086866;27;20023;-73
2023/03/03 02:46:07;;;;;;;;;;;3.10;98.00;;;;;;5089009;28;20475;-73
2023/03/03 02:48:32;;;;;;;;;;;3.10;98.00;;;;;;5090483;28;19919;-74
2023/03/03 02:50:58;;;;;;;;;;;3.10;98.00;;;;;;5101933;28;19908;-73
2023/03/03 02:53:23;;;;;;;;;;;3.10;98.00;;;;;;5104044;28;19977;-74
2023/03/03 02:55:49;;;;;;;;;;;3.10;98.00;;;;;;5090941;28;19927;-73
2023/03/03 02:58:14;;;;;;;;;;;3.10;98.00;;;;;;5090187;28;19912;-73
2023/03/03 03:00:40;;;;;;;;;;;3.10;98.00;;;;;;5090213;28;20403;-74
2023/03/03 03:03:05;;;;;;;;;;;3.10;98.00;;;;;;5090402;28;19988;-73
2023/03/03 03:05:31;;;;;;;;;;;3.00;98.00;;;;;;5090265;28;19951;-74
2023/03/03 03:07:56;;;;;;;;;;;3.00;98.00;;;;;;5090101;28;19909;-74
2023/03/03 03:10:22;;;;;;;;;;;3.10;98.00;;;;;;5088178;28;20262;-73
2023/03/03 03:12:47;;;;;;;;;;;3.10;98.10;;;;;;5090045;28;19912;-73
2023/03/03 03:15:14;;;;;;;;;;;3.00;98.00;;;;;;5122809;27;19919;-74
2023/03/03 03:17:40;;;;;;;;;;;3.00;98.10;;;;;;5089570;28;20385;-73
2023/03/03 03:20:06;;;;;;;;;;;3.00;98.10;;;;;;5092866;28;19991;-73
2023/03/03 03:22:31;;;;;;;;;;;3.10;98.00;;;;;;5110411;28;19951;-73
2023/03/03 03:24:57;;;;;;;;;;;3.00;98.00;;;;;;5090505;28;20513;-73
2023/03/03 03:27:22;;;;;;;;;;;3.00;98.00;;;;;;5101724;28;19923;-73
2023/03/03 03:29:48;;;;;;;;;;;3.00;98.00;;;;;;5110435;28;19907;-73
2023/03/03 03:32:13;;;;;;;;;;;3.00;98.00;;;;;;5108935;28;19919;-74
2023/03/03 03:34:39;;;;;;;;;;;3.00;98.00;;;;;;5110331;28;19912;-73
2023/03/03 03:37:05;;;;;;;;;;;3.00;98.10;;;;;;5109956;28;20363;-73
2023/03/03 03:39:30;;;;;;;;;;;3.00;98.10;;;;;;5109981;28;19998;-73
2023/03/03 03:41:56;;;;;;;;;;;3.00;98.00;;;;;;5099654;28;19994;-74
2023/03/03 03:44:22;;;;;;;;;;;3.00;98.10;;;;;;5090991;28;19912;-73
2023/03/03 03:46:48;;;;;;;;;;;3.00;98.10;;;;;;5089194;28;19971;-74
2023/03/03 03:49:13;;;;;;;;;;;3.00;98.10;;;;;;5093573;28;20331;-73
2023/03/03 03:51:40;;;;;;;;;;;3.00;98.10;;;;;;5109589;28;19912;-73
2023/03/03 03:54:06;;;;;;;;;;;3.00;98.10;;;;;;5095350;28;19912;-74
2023/03/03 03:56:31;;;;;;;;;;;3.00;98.10;;;;;;5089204;28;19912;-73
2023/03/03 03:58:57;;;;;;;;;;;3.00;98.10;;;;;;5089030;28;19925;-74
2023/03/03 04:01:22;;;;;;;;;;;3.00;98.10;;;;;;5089239;28;19920;-73
2023/03/03 04:03:48;;;;;;;;;;;3.00;98.10;;;;;;5098279;28;20256;-74
2023/03/03 04:06:14;;;;;;;;;;;3.00;98.10;;;;;;5108206;28;19915;-74
2023/03/03 04:08:39;;;;;;;;;;;3.00;98.10;;;;;;5106726;28;19912;-74
2023/03/03 04:11:04;;;;;;;;;;;3.00;98.10;;;;;;5088244;28;20353;-74
2023/03/03 04:13:33;;;;;;;;;;;3.00;98.10;;;;;;5088733;28;19965;-74
2023/03/03 04:15:59;;;;;;;;;;;3.00;98.10;;;;;;5088725;28;20434;-73
2023/03/03 04:18:25;;;;;;;;;;;3.00;98.10;;;;;;5088293;28;20291;-73
2023/03/03 04:20:51;;;;;;;;;;;3.00;98.10;;;;;;5100053;28;19920;-73
2023/03/03 04:23:18;;;;;;;;;;;3.00;98.20;;;;;;5103152;28;19912;-73
2023/03/03 04:25:45;;;;;;;;;;;2.90;98.10;;;;;;5087298;28;19915;-73
2023/03/03 04:28:10;;;;;;;;;;;2.90;98.10;;;;;;5088512;28;19963;-73
2023/03/03 04:30:35;;;;;;;;;;;3.00;98.10;;;;;;5088503;28;20717;-73
2023/03/03 04:33:01;;;;;;;;;;;2.90;98.10;;;;;;5088495;28;19923;-74
2023/03/03 04:35:27;;;;;;;;;;;2.90;98.10;;;;;;5088885;28;19973;-73
2023/03/03 04:37:52;;;;;;;;;;;2.90;98.10;;;;;;5107026;28;20532;-73
2023/03/03 04:40:18;;;;;;;;;;;2.90;98.10;;;;;;5108643;28;20444;-74
2023/03/03 04:42:44;;;;;;;;;;;2.90;98.10;;;;;;5091861;28;19919;-73
2023/03/03 04:45:10;;;;;;;;;;;2.90;98.10;;;;;;5088419;28;19912;-74
2023/03/03 04:47:35;;;;;;;;;;;2.90;98.20;;;;;;5088049;28;19926;-73
2023/03/03 04:50:01;;;;;;;;;;;2.90;98.10;;;;;;5091439;28;19984;-73
2023/03/03 04:52:26;;;;;;;;;;;2.90;98.20;;;;;;5107645;28;19916;-73
2023/03/03 04:54:52;;;;;;;;;;;2.90;98.20;;;;;;5108382;28;19918;-74
2023/03/03 04:57:17;;;;;;;;;;;2.90;98.10;;;;;;5108231;28;19919;-73
2023/03/03 04:59:43;;;;;;;;;;;2.90;98.10;;;;;;5108456;28;19912;-73
2023/03/03 05:02:08;;;;;;;;;;;2.90;98.20;;;;;;5090178;28;19939;-73
2023/03/03 05:04:34;;;;;;;;;;;2.90;98.20;;;;;;5088217;28;19912;-73
2023/03/03 05:06:59;;;;;;;;;;;2.90;98.10;;;;;;5088473;28;19915;-73
2023/03/03 05:09:25;;;;;;;;;;;2.90;98.10;;;;;;5085181;28;19916;-73
2023/03/03 05:11:50;;;;;;;;;;;2.90;98.10;;;;;;5087376;28;19916;-74
2023/03/03 05:14:16;;;;;;;;;;;2.90;98.20;;;;;;5087938;28;20682;-73
2023/03/03 05:16:41;;;;;;;;;;;2.90;98.10;;;;;;5086373;28;20628;-73
2023/03/03 05:19:07;;;;;;;;;;;2.90;98.20;;;;;;5087579;28;20007;-73
2023/03/03 05:21:33;;;;;;;;;;;2.90;98.10;;;;;;5103904;28;19984;-73
2023/03/03 05:23:58;;;;;;;;;;;2.90;98.20;;;;;;5096152;28;19957;-73
2023/03/03 05:26:24;;;;;;;;;;;2.90;98.20;;;;;;5101359;28;19958;-73
2023/03/03 05:28:49;;;;;;;;;;;2.90;98.20;;;;;;5107927;28;19916;-74
2023/03/03 05:31:15;;;;;;;;;;;2.90;98.20;;;;;;5107900;28;19919;-73
2023/03/03 05:33:41;;;;;;;;;;;2.90;98.10;;;;;;5106723;28;19911;-73
2023/03/03 05:36:07;;;;;;;;;;;2.90;98.20;;;;;;5108074;28;19912;-73
2023/03/03 05:38:32;;;;;;;;;;;2.90;98.20;;;;;;5107740;28;19916;-73
2023/03/03 05:40:58;;;;;;;;;;;2.90;98.10;;;;;;5092045;28;19999;-73
2023/03/03 05:43:23;;;;;;;;;;;2.80;98.10;;;;;;5088035;28;20554;-73
2023/03/03 05:45:53;;;;;;;;;;;2.80;98.10;;;;;;5087442;28;20024;-73
2023/03/03 05:48:19;;;;;;;;;;;2.80;98.10;;;;;;5087348;28;19973;-73
2023/03/03 05:50:44;;;;;;;;;;;2.80;98.10;;;;;;5096403;28;19915;-74
2023/03/03 05:53:10;;;;;;;;;;;2.80;98.10;;;;;;5102962;28;20167;-73
2023/03/03 05:55:35;;;;;;;;;;;2.80;98.10;;;;;;5087805;28;20634;-74
2023/03/03 05:58:01;;;;;;;;;;;2.80;98.10;;;;;;5087227;28;20543;-74
2023/03/03 06:00:26;;;;;;;;;;;2.80;98.10;;;;;;5087232;28;19920;-73
2023/03/03 06:02:52;;;;;;;;;;;2.80;98.20;;;;;;5087262;28;20578;-73
2023/03/03 06:05:17;;;;;;;;;;;2.80;98.10;;;;;;5087101;28;19913;-73
2023/03/03 06:07:43;;;;;;;;;;;2.80;98.20;;;;;;5086978;28;19908;-74
2023/03/03 06:10:09;;;;;;;;;;;2.80;98.10;;;;;;5086473;28;20402;-74
2023/03/03 06:12:36;;;;;;;;;;;2.80;98.10;;;;;;5097308;28;19961;-73
2023/03/03 06:15:01;;;;;;;;;;;2.80;98.10;;;;;;5106185;28;20665;-73
2023/03/03 06:17:27;;;;;;;;;;;2.80;98.20;;;;;;5107392;28;19916;-73
2023/03/03 06:19:52;;;;;;;;;;;2.80;98.10;;;;;;5102704;28;19923;-73
2023/03/03 06:22:18;;;;;;;;;;;2.80;98.10;;;;;;5107455;28;19947;-73
2023/03/03 06:24:43;;;;;;;;;;;2.80;98.10;;;;;;5089344;28;19941;-74
2023/03/03 06:27:09;;;;;;;;;;;2.80;98.10;;;;;;5086821;28;19919;-73
2023/03/03 06:29:34;;;;;;;;;;;2.80;98.20;;;;;;5101201;28;19923;-73
2023/03/03 06:32:00;;;;;;;;;;;2.80;98.20;;;;;;5105947;28;19956;-74
2023/03/03 06:34:25;;;;;;;;;;;2.80;98.10;;;;;;5107437;28;19915;-73
2023/03/03 06:36:51;;;;;;;;;;;2.80;98.20;;;;;;5107436;28;19919;-73
2023/03/03 06:39:17;;;;;;;;;;;2.80;98.20;;;;;;5107196;28;20027;-73
2023/03/03 06:41:42;;;;;;;;;;;2.80;98.20;;;;;;5099189;28;19923;-73
2023/03/03 06:44:08;;;;;;;;;;;2.80;98.20;;;;;;5097595;28;20602;-74
2023/03/03 06:46:33;;;;;;;;;;;2.80;98.20;;;;;;5107195;28;19916;-74
2023/03/03 06:48:59;;;;;;;;;;;2.80;98.20;;;;;;5107070;28;19926;-73
2023/03/03 06:51:29;;;;;;;;;;;2.80;98.10;;;;;;5092399;28;19912;-73
2023/03/03 06:53:55;;;;;;;;;;;2.80;98.10;;;;;;5098217;28;19919;-73
2023/03/03 06:56:24;;;;;;;;;;;2.80;98.10;;;;;;5109726;28;19908;-74
2023/03/03 06:58:55;;;;;;;;;;;2.80;98.10;;;;;;5110089;28;20735;-73
2023/03/03 07:01:20;;;;;;;;;;;2.80;98.10;;;;;;5099578;28;19920;-73
2023/03/03 07:03:46;;;;;;;;;;;2.80;98.10;;;;;;5090647;28;20426;-73
2023/03/03 07:06:17;;;;;;;;;;;2.80;98.10;;;;;;5090483;28;19912;-73
2023/03/03 07:08:43;;;;;;;;;;;2.80;98.10;;;;;;5087170;28;19924;-74
2023/03/03 07:11:11;;;;;;;;;;;2.80;98.10;;;;;;5089816;28;19916;-73
2023/03/03 07:13:38;;;;;;;;;;;2.80;98.10;;;;;;5091295;28;20269;-74
2023/03/03 07:16:09;;;;;;;;;;;2.80;98.10;;;;;;5089966;28;19966;-73
2023/03/03 07:18:34;;;;;;;;;;;2.80;98.10;;;;;;5089667;28;19920;-73
2023/03/03 07:21:06;;;;;;;;;;;2.80;98.10;;;;;;5089961;28;20253;-73
2023/03/03 07:23:41;;;;;;;;;;;2.80;98.10;;;;;;5098043;28;19911;-73
2023/03/03 07:26:14;;;;;;;;;;;2.80;98.10;;;;;;5110464;28;19912;-73
2023/03/03 07:28:40;;;;;;;;;;;2.80;98.10;;;;;;5110470;28;20562;-73
2023/03/03 07:31:16;;;;;;;;;;;2.80;98.10;;;;;;5109355;28;19923;-73
2023/03/03 07:33:43;;;;;;;;;;;2.80;98.10;;;;;;5110468;28;19916;-73
2023/03/03 07:36:21;;;;;;;;;;;2.80;98.10;;;;;;5110168;28;19933;-73
2023/03/03 07:38:51;;;;;;;;;;;2.80;98.10;;;;;;5109915;28;19934;-73
2023/03/03 07:41:22;;;;;;;;;;;2.80;98.10;;;;;;5104681;28;19916;-73
2023/03/03 07:43:49;;;;;;;;;;;2.80;98.10;;;;;;5089184;28;19912;-74
2023/03/03 07:46:33;;;;;;;;;;;2.80;98.10;;;;;;5089675;28;20100;-73
2023/03/03 07:48:59;;;;;;;;;;;2.80;98.10;;;;;;5089253;28;19915;-73
2023/03/03 07:51:33;;;;;;;;;;;2.80;98.10;;;;;;5089199;28;19912;-73
2023/03/03 07:54:11;;;;;;;;;;;2.80;98.10;;;;;;5099956;28;20585;-73
2023/03/03 07:56:36;;;;;;;;;;;2.80;98.10;;;;;;5100922;28;20454;-73
2023/03/03 07:59:14;;;;;;;;;;;2.80;98.10;;;;;;5088785;28;19912;-73
2023/03/03 08:01:42;;;;;;;;;;;2.80;98.10;;;;;;5088965;28;19915;-72
2023/03/03 08:04:14;;;;;;;;;;;2.80;98.10;;;;;;5089203;28;19962;-73
2023/03/03 08:06:39;;;;;;;;;;;2.80;98.10;;;;;;5088791;28;19938;-73
2023/03/03 08:09:11;;;;;;;;;;;2.80;98.10;;;;;;5094683;28;20527;-73
2023/03/03 08:11:46;;;;;;;;;;;2.80;98.10;;;;;;5095969;28;19916;-73
2023/03/03 08:14:14;;;;;;;;;;;2.80;98.10;;;;;;5097502;28;19911;-73
2023/03/03 08:16:39;;;;;;;;;;;2.80;98.10;;;;;;5099609;28;19965;-74
2023/03/03 08:19:05;;;;;;;;;;;2.80;98.10;;;;;;5097287;28;19919;-74
2023/03/03 08:21:33;;;;;;;;;;;2.80;98.10;;;;;;5098580;28;19915;-74
2023/03/03 08:23:58;;;;;;;;;;;2.80;98.10;;;;;;5098409;28;19911;-74
2023/03/03 08:26:24;;;;;;;;;;;2.80;98.10;;;;;;5099731;28;19927;-74
2023/03/03 08:28:50;;;;;;;;;;;2.80;98.10;;;;;;5096746;28;19912;-73
2023/03/03 08:31:16;;;;;;;;;;;2.80;98.10;;;;;;5098072;28;19908;-73
2023/03/03 08:33:42;;;;;;;;;;;2.80;98.10;;;;;;5099504;28;19967;-73
2023/03/03 08:36:08;;;;;;;;;;;2.80;98.10;;;;;;5092016;28;19959;-74
2023/03/03 08:38:34;;;;;;;;;;;2.80;98.20;;;;;;5093960;28;19924;-73
2023/03/03 08:40:59;;;;;;;;;;;2.80;98.10;;;;;;5095137;28;19916;-73
2023/03/03 08:43:25;;;;;;;;;;;2.80;98.10;;;;;;5098658;28;19919;-74
2023/03/03 08:45:52;;;;;;;;;;;2.80;98.10;;;;;;5097663;28;19919;-73
2023/03/03 08:48:18;;;;;;;;;;;2.80;98.10;;;;;;5097216;28;19908;-74
2023/03/03 08:50:43;;;;;;;;;;;2.80;98.10;;;;;;5099125;28;20554;-73
2023/03/03 08:53:10;;;;;;;;;;;2.80;98.10;;;;;;5097889;28;20487;-73
2023/03/03 08:55:35;;;;;;;;;;;2.80;98.20;;;;;;5098075;28;19951;-73
2023/03/03 08:58:01;;;;;;;;;;;2.80;98.10;;;;;;5096532;28;19962;-73
2023/03/03 09:00:27;;;;;;;;;;;2.80;98.20;;;;;;5094706;28;19927;-74
2023/03/03 09:02:53;;;;;;;;;;;2.80;98.20;;;;;;5096565;28;19969;-73
2023/03/03 09:05:19;;;;;;;;;;;2.80;98.10;;;;;;5097293;28;19912;-73
2023/03/03 09:07:46;;;;;;;;;;;2.80;98.20;;;;;;5098601;28;19957;-73
2023/03/03 09:10:12;;;;;;;;;;;2.80;98.10;;;;;;5090360;28;20072;-73
2023/03/03 09:12:40;;;;;;;;;;;2.80;98.20;;;;;;5090262;28;19922;-73
2023/03/03 09:15:25;;;;;;;;;;;2.90;98.20;;;;;;5094234;28;19920;-73
2023/03/03 09:17:51;;;;;;;;;;;2.90;98.20;;;;;;5087054;28;19926;-73
2023/03/03 09:20:21;;;;;;;;;;;2.90;98.20;;;;;;5093230;28;20612;-73
2023/03/03 09:22:46;;;;;;;;;;;2.90;98.10;;;;;;5106240;28;20164;-74
2023/03/03 09:25:31;;;;;;;;;;;2.90;98.10;;;;;;5086964;28;20740;-73
2023/03/03 09:27:57;;;;;;;;;;;2.90;98.20;;;;;;5087801;28;19915;-73
2023/03/03 09:30:25;;;;;;;;;;;2.90;98.20;;;;;;5087915;28;19914;-73
2023/03/03 09:32:51;;;;;;;;;;;2.90;98.20;;;;;;5088225;28;19997;-73
2023/03/03 09:35:36;;;;;;;;;;;2.90;98.10;;;;;;5088122;28;19973;-73
2023/03/03 09:38:31;;;;;;;;;;;3.00;98.20;;;;;;5087951;28;20313;-73
2023/03/03 09:41:02;;;;;;;;;;;3.00;98.20;;;;;;5083744;28;19972;-73
2023/03/03 09:43:28;;;;;;;;;;;3.00;98.20;;;;;;5087392;28;19962;-73
2023/03/03 09:45:53;;;;;;;;;;;3.00;98.20;;;;;;5087748;28;19915;-74
2023/03/03 09:48:22;;;;;;;;;;;3.00;98.10;;;;;;5087769;28;19920;-73
2023/03/03 09:50:47;;;;;;;;;;;3.00;98.10;;;;;;5097773;28;20269;-74
2023/03/03 09:53:16;;;;;;;;;;;3.00;98.20;;;;;;5102934;28;19916;-74
2023/03/03 09:55:49;;;;;;;;;;;3.00;98.20;;;;;;5087845;28;19912;-73
2023/03/03 09:58:33;;;;;;;;;;;3.00;98.20;;;;;;5100219;28;19915;-73
2023/03/03 10:01:01;;;;;;;;;;;3.10;98.20;;;;;;5099777;28;19956;-73
2023/03/03 10:03:29;;;;;;;;;;;3.10;98.20;;;;;;5087633;28;19912;-74
2023/03/03 10:06:10;;;;;;;;;;;3.10;98.20;;;;;;5087659;28;19912;-73
2023/03/03 10:08:42;;;;;;;;;;;3.10;98.20;;;;;;5085649;28;19912;-73
2023/03/03 10:11:10;;;;;;;;;;;3.10;98.20;;;;;;5086827;28;19916;-74
2023/03/03 10:13:54;;;;;;;;;;;3.10;98.20;;;;;;5096621;28;19926;-73
2023/03/03 10:16:38;;;;;;;;;;;3.10;98.20;;;;;;5086783;28;19919;-73
2023/03/03 10:19:13;;;;;;;;;;;3.10;98.20;;;;;;5086723;28;19998;-74
2023/03/03 10:21:45;;;;;;;;;;;3.10;98.20;;;;;;5086123;28;20011;-74
2023/03/03 10:24:13;;;;;;;;;;;3.10;98.20;;;;;;5100920;28;20459;-73
2023/03/03 10:26:58;;;;;;;;;;;3.20;98.20;;;;;;5106470;28;20733;-74
2023/03/03 10:29:26;;;;;;;;;;;3.20;98.20;;;;;;5089508;28;19938;-73
2023/03/03 10:31:58;;;;;;;;;;;3.20;98.30;;;;;;5108435;28;19919;-73
2023/03/03 10:34:42;;;;;;;;;;;3.20;98.20;;;;;;5111764;28;19980;-74
2023/03/03 10:37:16;;;;;;;;;;;3.30;98.20;;;;;;5070952;28;19916;-74
2023/03/03 10:39:50;;;;;;;;;;;3.20;98.10;;;;;;5070513;28;20003;-73
2023/03/03 10:42:27;;;;;;;;;;;3.20;98.10;;;;;;5083812;28;20274;-74
2023/03/03 10:44:53;;;;;;;;;;;3.30;98.10;;;;;;5091239;28;19912;-73
2023/03/03 10:47:24;;;;;;;;;;;3.30;98.10;;;;;;5100874;28;19923;-74
2023/03/03 10:50:08;;;;;;;;;;;3.30;98.10;;;;;;5110135;28;19964;-74
2023/03/03 10:52:43;;;;;;;;;;;3.30;98.00;;;;;;5091022;28;19920;-74
2023/03/03 10:55:18;;;;;;;;;;;3.40;98.00;;;;;;5070605;28;20259;-74
2023/03/03 10:57:43;;;;;;;;;;;3.40;98.00;;;;;;5070326;28;19916;-74
2023/03/03 11:00:27;;;;;;;;;;;3.40;97.90;;;;;;5071437;28;19962;-74
2023/03/03 11:03:08;;;;;;;;;;;3.40;97.90;;;;;;5091946;28;20025;-74
2023/03/03 11:05:54;;;;;;;;;;;3.50;97.90;;;;;;5090815;28;19923;-74
2023/03/03 11:08:21;;;;;;;;;;;3.50;98.20;;;;;;5090362;28;19912;-74
2023/03/03 11:11:06;;;;;;;;;;;3.40;97.90;;;;;;5090016;28;20431;-74
2023/03/03 11:13:50;;;;;;;;;;;3.50;97.90;;;;;;5090597;28;20092;-74
2023/03/03 11:16:16;;;;;;;;;;;3.50;97.90;;;;;;5090563;28;19912;-74
2023/03/03 11:18:47;;;;;;;;;;;3.50;97.80;;;;;;5090321;28;19927;-74
2023/03/03 11:21:28;;;;;;;;;;;3.50;97.90;;;;;;5091788;28;19920;-74
2023/03/03 11:23:56;;;;;;;;;;;3.50;97.90;;;;;;5101507;28;19912;-74
2023/03/03 11:26:21;;;;;;;;;;;3.50;97.90;;;;;;5110835;28;19957;-74
2023/03/03 11:29:06;;;;;;;;;;;3.60;98.20;;;;;;5110753;28;20442;-74
2023/03/03 11:31:31;;;;;;;;;;;3.60;97.90;;;;;;5110519;28;20011;-73
2023/03/03 11:34:06;;;;;;;;;;;3.60;97.90;;;;;;5102319;28;19998;-74
2023/03/03 11:36:44;;;;;;;;;;;3.60;97.90;;;;;;5102814;28;20253;-74
2023/03/03 11:39:12;;;;;;;;;;;3.70;97.80;;;;;;5110364;28;20705;-73
2023/03/03 11:41:37;;;;;;;;;;;3.70;97.90;;;;;;5101955;28;19985;-74
2023/03/03 11:44:03;;;;;;;;;;;3.70;97.90;;;;;;5089976;28;20538;-74
2023/03/03 11:46:30;;;;;;;;;;;3.70;97.80;;;;;;5089927;28;19919;-74
2023/03/03 11:49:03;;;;;;;;;;;3.70;97.80;;;;;;5089707;28;19919;-75
2023/03/03 11:51:40;;;;;;;;;;;3.70;97.80;;;;;;5088847;28;20543;-74
2023/03/03 11:54:09;;;;;;;;;;;3.70;97.80;;;;;;5110254;28;19912;-74
2023/03/03 11:56:39;;;;;;;;;;;3.80;97.80;;;;;;5108365;28;19911;-74
2023/03/03 11:59:23;;;;;;;;;;;3.80;97.80;;;;;;5089419;28;19939;-74
2023/03/03 12:01:56;;;;;;;;;;;3.80;97.70;;;;;;5089307;28;20384;-74
2023/03/03 12:04:24;;;;;;;;;;;3.80;97.80;;;;;;5089654;28;19965;-74
2023/03/03 12:07:08;;;;;;;;;;;3.80;97.80;;;;;;5089302;28;20375;-74
2023/03/03 12:09:48;;;;;;;;;;;3.90;97.80;;;;;;5090145;28;19951;-74
2023/03/03 12:12:18;;;;;;;;;;;3.90;97.70;;;;;;5085998;28;19916;-74
2023/03/03 12:14:49;;;;;;;;;;;3.90;97.80;;;;;;5080273;28;19970;-73
2023/03/03 12:17:33;;;;;;;;;;;4.00;97.70;;;;;;5078948;28;20600;-73
2023/03/03 12:19:59;;;;;;;;;;;4.00;97.70;;;;;;5084248;28;20783;-74
2023/03/03 12:22:29;;;;;;;;;;;4.00;97.50;;;;;;5084261;28;19912;-74
2023/03/03 12:25:04;;;;;;;;;;;4.00;97.50;;;;;;5101333;28;19948;-74
2023/03/03 12:27:29;;;;;;;;;;;4.10;97.50;;;;;;5108548;28;20381;-74
2023/03/03 12:30:05;;;;;;;;;;;4.10;97.50;;;;;;5109321;28;20046;-74
2023/03/03 12:32:34;;;;;;;;;;;4.10;97.50;;;;;;5108876;28;19916;-75
2023/03/03 12:35:10;;;;;;;;;;;4.10;97.50;;;;;;5096428;28;19912;-75
2023/03/03 12:37:45;;;;;;;;;;;4.10;97.50;;;;;;5088547;28;19912;-74
2023/03/03 12:40:11;;;;;;;;;;;4.20;97.50;;;;;;5094591;28;20395;-74
2023/03/03 12:42:45;;;;;;;;;;;4.20;97.50;;;;;;5083876;28;19955;-74
2023/03/03 12:45:11;;;;;;;;;;;4.20;97.50;;;;;;5094548;28;20456;-74
2023/03/03 12:47:48;;;;;;;;;;;4.20;97.50;;;;;;5097886;28;19912;-74
2023/03/03 12:50:28;;;;;;;;;;;4.20;97.40;;;;;;5099805;28;19912;-74
2023/03/03 12:52:54;;;;;;;;;;;4.30;97.50;;;;;;5095567;28;19916;-74
2023/03/03 12:55:19;;;;;;;;;;;4.20;97.40;;;;;;5098023;28;19916;-75
2023/03/03 12:57:54;;;;;;;;;;;4.30;97.50;;;;;;5097521;28;20265;-74
2023/03/03 13:00:38;;;;;;;;;;;4.30;97.40;;;;;;5101879;28;19922;-74
2023/03/03 13:03:03;;;;;;;;;;;4.30;97.40;;;;;;5087292;28;19920;-74
2023/03/03 13:05:48;;;;;;;;;;;4.40;97.30;;;;;;5087010;28;19912;-74
2023/03/03 13:08:30;;;;;;;;;;;4.40;97.30;;;;;;5086841;28;19916;-74
2023/03/03 13:10:55;;;;;;;;;;;4.40;97.20;;;;;;5084489;28;19912;-74
2023/03/03 13:13:31;;;;;;;;;;;4.50;97.20;;;;;;5086556;28;20344;-74
2023/03/03 13:16:08;;;;;;;;;;;4.50;97.20;;;;;;5104409;28;19969;-73
2023/03/03 13:18:37;;;;;;;;;;;4.50;97.10;;;;;;5106416;28;19920;-74
2023/03/03 13:21:09;;;;;;;;;;;4.50;97.10;;;;;;5100460;27;19920;-74
2023/03/03 13:23:39;;;;;;;;;;;4.60;97.00;;;;;;5094258;28;20532;-74
2023/03/03 13:26:05;;;;;;;;;;;4.60;97.00;;;;;;5097551;28;19994;-74
2023/03/03 13:28:40;;;;;;;;;;;4.70;96.90;;;;;;5097277;28;20463;-74
2023/03/03 13:31:15;;;;;;;;;;;4.70;96.90;;;;;;5095467;28;19935;-74
2023/03/03 13:33:47;;;;;;;;;;;4.70;96.80;;;;;;5095894;28;19919;-74
2023/03/03 13:36:13;;;;;;;;;;;4.70;96.90;;;;;;5097893;28;20395;-74
2023/03/03 13:38:40;;;;;;;;;;;4.70;96.80;;;;;;5095902;28;19919;-74
2023/03/03 13:41:13;;;;;;;;;;;4.80;96.80;;;;;;5096021;28;19966;-75
2023/03/03 13:43:38;;;;;;;;;;;4.90;96.70;;;;;;5097111;28;19912;-74
2023/03/03 13:46:23;;;;;;;;;;;4.90;96.70;;;;;;5095245;28;19912;-74
2023/03/03 13:48:59;;;;;;;;;;;5.00;96.70;;;;;;5086413;28;19912;-74
2023/03/03 13:51:36;;;;;;;;;;;5.00;96.60;;;;;;5100885;28;20329;-74
2023/03/03 13:54:02;;;;;;;;;;;5.00;96.70;;;;;;5107036;28;19939;-74
2023/03/03 13:56:30;;;;;;;;;;;5.00;96.70;;;;;;5107055;28;19958;-74
2023/03/03 13:59:16;;;;;;;;;;;5.10;96.60;;;;;;5106903;28;19912;-74
2023/03/03 14:01:48;;;;;;;;;;;5.10;96.50;;;;;;5060044;28;19916;-74
2023/03/03 14:04:13;;;;;;;;;;;5.20;96.40;;;;;;5067412;28;19917;-74
2023/03/03 14:06:40;;;;;;;;;;;5.20;96.50;;;;;;5091467;28;20431;-75
2023/03/03 14:09:08;;;;;;;;;;;5.20;96.40;;;;;;5104796;28;19912;-74
2023/03/03 14:11:40;;;;;;;;;;;5.20;96.40;;;;;;5089670;28;19916;-74
2023/03/03 14:14:24;;;;;;;;;;;5.20;96.30;;;;;;5089572;28;19912;-74
2023/03/03 14:16:58;;;;;;;;;;;5.20;96.30;;;;;;5090650;28;19918;-74
2023/03/03 14:19:24;;;;;;;;;;;5.30;96.40;;;;;;5090440;28;20005;-74
2023/03/03 14:22:01;;;;;;;;;;;5.30;96.40;;;;;;5108344;28;19976;-74
2023/03/03 14:24:28;;;;;;;;;;;5.30;96.40;;;;;;5100933;28;20334;-74
2023/03/03 14:26:58;;;;;;;;;;;5.30;96.40;;;;;;5099317;28;19927;-74
2023/03/03 14:29:26;;;;;;;;;;;5.30;96.40;;;;;;5099297;28;20392;-74
2023/03/03 14:32:18;;;;;;;;;;;5.40;96.40;;;;;;5096267;28;19962;-74
2023/03/03 14:34:45;;;;;;;;;;;5.40;96.40;;;;;;5099314;28;19981;-74
2023/03/03 14:37:21;;;;;;;;;;;5.50;96.40;;;;;;5098983;28;19919;-74
2023/03/03 14:39:59;;;;;;;;;;;5.50;96.20;;;;;;5100563;28;19966;-75
2023/03/03 14:42:37;;;;;;;;;;;5.60;96.20;;;;;;5092525;28;19958;-75
2023/03/03 14:45:22;;;;;;;;;;;5.60;96.10;;;;;;5095319;28;20002;-75